Time;durP1;ratioP1;P1;durP2;ratioP2;P2;SDS_P1;SDS_P2;PMS_P1;PMS_P2;Temp;Humidity;BMP_temperature;BMP_pressure;BME280_temperature;BME280_humidity;BME280_pressure;Samples;Min_cycle;Max_cycle;Signal;HPM_P1;HPM_P2
2023/01/19 00:01:34;;;;;;;19.23;9.85;;;0.90;90.10;;;;;;5038133;28;20084;-68
2023/01/19 00:03:59;;;;;;;13.07;8.32;;;1.00;90.10;;;;;;5034618;28;20045;-68
2023/01/19 00:06:25;;;;;;;20.63;10.20;;;1.00;90.10;;;;;;5028647;28;20108;-68
2023/01/19 00:08:51;;;;;;;19.48;9.00;;;0.90;90.20;;;;;;5030990;28;20036;-69
2023/01/19 00:11:16;;;;;;;17.38;9.90;;;1.00;90.40;;;;;;5030882;28;20036;-68
2023/01/19 00:13:48;;;;;;;14.32;8.60;;;1.00;90.00;;;;;;5028354;28;20060;-69
2023/01/19 00:16:16;;;;;;;17.52;9.73;;;1.00;90.20;;;;;;5032911;28;20031;-70
2023/01/19 00:18:42;;;;;;;17.02;9.93;;;0.90;90.20;;;;;;5030372;28;20057;-69
2023/01/19 00:21:07;;;;;;;15.65;8.70;;;1.00;90.40;;;;;;5028188;28;20032;-69
2023/01/19 00:23:33;;;;;;;17.95;9.88;;;1.00;90.30;;;;;;5030469;28;20053;-68
2023/01/19 00:25:58;;;;;;;17.10;9.57;;;1.00;90.30;;;;;;5022362;28;20034;-68
2023/01/19 00:28:24;;;;;;;16.48;9.90;;;1.00;90.10;;;;;;5027130;28;20041;-68
2023/01/19 00:30:50;;;;;;;17.52;9.38;;;1.00;90.20;;;;;;5026831;28;20386;-68
2023/01/19 00:33:15;;;;;;;16.13;9.75;;;1.00;90.30;;;;;;5029258;28;20033;-71
2023/01/19 00:35:41;;;;;;;16.02;9.30;;;1.00;90.40;;;;;;5023767;28;20032;-68
2023/01/19 00:38:07;;;;;;;15.80;9.95;;;1.00;90.40;;;;;;5028886;28;20034;-69
2023/01/19 00:40:33;;;;;;;14.98;8.55;;;1.10;90.20;;;;;;5032102;28;20033;-69
2023/01/19 00:42:59;;;;;;;17.88;9.73;;;1.00;90.40;;;;;;5025734;28;20398;-68
2023/01/19 00:45:25;;;;;;;20.00;9.93;;;1.00;90.40;;;;;;5032893;28;20037;-69
2023/01/19 00:47:55;;;;;;;17.63;9.05;;;1.00;90.50;;;;;;5025867;28;20121;-68
2023/01/19 00:50:28;;;;;;;14.95;9.15;;;1.00;90.50;;;;;;5025896;28;20036;-68
2023/01/19 00:52:55;;;;;;;19.95;9.55;;;1.00;90.60;;;;;;5034468;28;20033;-68
2023/01/19 00:55:22;;;;;;;18.77;9.45;;;1.00;90.50;;;;;;5027385;28;20125;-68
2023/01/19 00:57:47;;;;;;;15.82;8.18;;;1.00;90.80;;;;;;5021626;28;20472;-68
2023/01/19 01:00:18;;;;;;;16.27;8.95;;;1.10;90.50;;;;;;5032941;28;20112;-69
2023/01/19 01:02:44;;;;;;;14.10;9.07;;;1.10;90.40;;;;;;5032521;28;20524;-69
2023/01/19 01:05:10;;;;;;;14.60;9.70;;;1.10;90.40;;;;;;5026237;28;20045;-68
2023/01/19 01:07:40;;;;;;;14.88;9.30;;;1.10;90.50;;;;;;5025990;28;20037;-68
2023/01/19 01:10:08;;;;;;;17.83;9.20;;;1.10;90.70;;;;;;5028653;28;20034;-71
2023/01/19 01:12:33;;;;;;;13.07;9.50;;;1.10;90.60;;;;;;5026532;28;20044;-69
2023/01/19 01:14:59;;;;;;;14.93;10.18;;;1.20;90.60;;;;;;5028831;28;20133;-68
2023/01/19 01:17:24;;;;;;;14.43;9.25;;;1.20;90.60;;;;;;5025252;28;20481;-68
2023/01/19 01:19:51;;;;;;;18.05;9.75;;;1.20;90.80;;;;;;5035095;28;20040;-68
2023/01/19 01:22:17;;;;;;;16.33;9.82;;;1.20;90.60;;;;;;5024975;28;20037;-71
2023/01/19 01:24:42;;;;;;;16.90;9.35;;;1.20;90.50;;;;;;5027269;28;20030;-68
2023/01/19 01:27:08;;;;;;;15.02;9.02;;;1.20;90.60;;;;;;5018179;28;20030;-69
2023/01/19 01:29:35;;;;;;;16.75;9.70;;;1.30;90.50;;;;;;5028290;28;20033;-68
2023/01/19 01:32:01;;;;;;;16.92;8.65;;;1.40;90.10;;;;;;5021469;28;20025;-70
2023/01/19 01:34:27;;;;;;;19.73;10.15;;;1.30;90.40;;;;;;5019122;28;20662;-68
2023/01/19 01:36:53;;;;;;;16.27;9.63;;;1.30;90.60;;;;;;5028791;28;20044;-68
2023/01/19 01:39:19;;;;;;;15.13;9.85;;;1.30;90.80;;;;;;5022252;28;20033;-69
2023/01/19 01:41:44;;;;;;;16.92;9.63;;;1.30;90.70;;;;;;5027205;28;20060;-68
2023/01/19 01:44:49;;;;;;;13.52;9.18;;;1.30;90.60;;;;;;5028309;28;20033;-69
2023/01/19 01:47:38;;;;;;;16.98;9.85;;;1.30;90.90;;;;;;5027101;28;20032;-68
2023/01/19 01:50:21;;;;;;;16.23;9.60;;;1.30;90.90;;;;;;5023238;28;20076;-69
2023/01/19 01:53:06;;;;;;;15.50;9.40;;;1.30;90.70;;;;;;5032775;28;20066;-69
2023/01/19 01:55:43;;;;;;;20.00;9.98;;;1.40;90.70;;;;;;5028787;28;20029;-69
2023/01/19 01:58:10;;;;;;;17.02;9.63;;;1.40;90.80;;;;;;5026307;28;20084;-68
2023/01/19 02:03:22;;;;;;;17.27;9.20;;;1.40;90.90;;;;;;5022059;28;20048;-70
2023/01/19 02:05:50;;;;;;;17.13;9.68;;;1.40;90.90;;;;;;5022778;28;20057;-68
2023/01/19 02:14:06;;;;;;;17.63;9.77;;;1.30;91.10;;;;;;5021631;28;20090;-68
2023/01/19 02:16:32;;;;;;;15.88;9.13;;;1.30;91.30;;;;;;5028299;28;20037;-69
2023/01/19 02:18:57;;;;;;;12.82;8.70;;;1.30;91.60;;;;;;5032505;28;20033;-68
2023/01/19 02:21:34;;;;;;;16.48;10.23;;;1.30;91.70;;;;;;5025286;28;20064;-69
2023/01/19 02:24:01;;;;;;;19.65;10.05;;;1.30;91.70;;;;;;5031053;28;20053;-69
2023/01/19 02:26:32;;;;;;;16.35;9.77;;;1.30;91.50;;;;;;5024656;28;20490;-69
2023/01/19 02:29:00;;;;;;;14.85;9.23;;;1.30;91.40;;;;;;5024312;28;20028;-68
2023/01/19 02:31:28;;;;;;;16.88;9.10;;;1.30;91.50;;;;;;5024305;28;20034;-68
2023/01/19 02:33:54;;;;;;;13.68;9.40;;;1.30;91.60;;;;;;5028014;28;20025;-70
2023/01/19 02:36:31;;;;;;;15.93;9.48;;;1.30;91.50;;;;;;5021892;28;20052;-70
2023/01/19 02:38:59;;;;;;;15.68;8.90;;;1.30;91.40;;;;;;5028807;28;20029;-69
2023/01/19 02:41:29;;;;;;;14.63;9.38;;;1.30;91.50;;;;;;5023101;28;20034;-69
2023/01/19 02:43:57;;;;;;;15.07;8.75;;;1.30;91.40;;;;;;5024398;28;20168;-69
2023/01/19 02:46:23;;;;;;;13.65;7.45;;;1.30;91.60;;;;;;5032059;28;20037;-69
2023/01/19 02:48:48;;;;;;;14.10;9.05;;;1.30;91.60;;;;;;5028931;28;20083;-68
2023/01/19 02:51:22;;;;;;;21.60;9.25;;;1.30;91.50;;;;;;5025919;28;20115;-68
2023/01/19 02:53:57;;;;;;;16.63;9.40;;;1.40;91.30;;;;;;5024454;28;20394;-68
2023/01/19 02:57:03;;;;;;;15.00;9.55;;;1.40;91.30;;;;;;5018161;28;20160;-69
2023/01/19 02:59:57;;;;;;;15.98;9.32;;;1.40;91.40;;;;;;5020868;28;20038;-68
2023/01/19 03:02:38;;;;;;;18.27;9.13;;;1.40;91.40;;;;;;5026817;28;20475;-68
2023/01/19 03:05:55;;;;;;;19.30;10.55;;;1.40;91.50;;;;;;5024947;28;20083;-69
2023/01/19 03:08:33;;;;;;;13.38;9.00;;;1.40;91.40;;;;;;5035751;28;20037;-69
2023/01/19 03:11:09;;;;;;;14.95;8.85;;;1.40;91.70;;;;;;5024521;28;20218;-68
2023/01/19 03:13:44;;;;;;;19.63;10.75;;;1.40;91.90;;;;;;5022566;28;20021;-68
2023/01/19 03:16:30;;;;;;;15.70;9.20;;;1.40;91.70;;;;;;5024515;28;20474;-69
2023/01/19 03:19:04;;;;;;;15.10;9.35;;;1.40;91.80;;;;;;5022184;28;20029;-69
2023/01/19 03:21:34;;;;;;;18.17;9.77;;;1.50;91.90;;;;;;5026182;28;20037;-69
2023/01/19 03:24:03;;;;;;;15.67;10.57;;;1.40;92.10;;;;;;5027587;28;20055;-68
2023/01/19 03:26:35;;;;;;;16.85;9.73;;;1.40;92.20;;;;;;5017185;28;20304;-68
2023/01/19 03:29:02;;;;;;;16.95;10.40;;;1.40;92.10;;;;;;5018646;28;20072;-69
2023/01/19 03:31:31;;;;;;;17.90;10.55;;;1.40;92.00;;;;;;5021758;28;20026;-68
2023/01/19 03:34:02;;;;;;;18.73;10.25;;;1.40;92.30;;;;;;5024921;28;20496;-69
2023/01/19 03:36:39;;;;;;;16.98;10.13;;;1.40;92.30;;;;;;5020087;28;20036;-69
2023/01/19 03:39:08;;;;;;;18.73;10.10;;;1.40;92.40;;;;;;5029120;28;20025;-70
2023/01/19 03:41:35;;;;;;;18.50;10.05;;;1.40;92.60;;;;;;5024674;28;20030;-69
2023/01/19 03:44:04;;;;;;;15.05;10.18;;;1.40;92.70;;;;;;5030558;28;20073;-68
2023/01/19 03:46:31;;;;;;;15.98;10.93;;;1.40;92.80;;;;;;5024660;28;20456;-69
2023/01/19 03:48:58;;;;;;;16.25;10.95;;;1.40;92.80;;;;;;5029272;28;20440;-68
2023/01/19 03:51:23;;;;;;;15.98;10.48;;;1.40;93.00;;;;;;5026961;28;20079;-69
2023/01/19 03:53:49;;;;;;;18.88;10.38;;;1.40;93.10;;;;;;5024288;28;20065;-68
2023/01/19 03:56:21;;;;;;;16.52;12.13;;;1.40;93.10;;;;;;5021185;28;20037;-69
2023/01/19 03:58:47;;;;;;;22.00;11.20;;;1.40;93.20;;;;;;5026214;28;20029;-70
2023/01/19 04:01:13;;;;;;;17.00;11.15;;;1.40;93.00;;;;;;5024729;28;20036;-69
2023/01/19 04:03:39;;;;;;;19.55;11.18;;;1.40;93.00;;;;;;5026461;28;20055;-70
2023/01/19 04:06:06;;;;;;;21.48;12.02;;;1.40;93.00;;;;;;5024184;28;20021;-69
2023/01/19 04:08:31;;;;;;;17.88;11.07;;;1.40;93.10;;;;;;5023253;28;20129;-68
2023/01/19 04:10:57;;;;;;;21.88;11.43;;;1.40;93.20;;;;;;5029922;28;20123;-69
2023/01/19 04:13:22;;;;;;;16.75;10.70;;;1.40;93.30;;;;;;5020689;28;20033;-69
2023/01/19 04:15:48;;;;;;;16.75;11.38;;;1.40;93.10;;;;;;5020757;28;20026;-69
2023/01/19 04:18:13;;;;;;;18.83;11.90;;;1.40;93.30;;;;;;5025726;28;20037;-70
2023/01/19 04:20:39;;;;;;;19.92;12.40;;;1.50;93.20;;;;;;5020867;28;20034;-70
2023/01/19 04:23:04;;;;;;;23.08;12.40;;;1.50;93.10;;;;;;5025255;28;20095;-69
2023/01/19 04:25:30;;;;;;;18.05;11.82;;;1.50;93.00;;;;;;5026843;28;20080;-70
2023/01/19 04:27:57;;;;;;;21.25;11.43;;;1.50;93.00;;;;;;5024575;28;20351;-68
2023/01/19 04:30:23;;;;;;;20.63;12.75;;;1.50;93.20;;;;;;5029876;28;20044;-69
2023/01/19 04:32:48;;;;;;;22.58;12.50;;;1.50;93.20;;;;;;5030517;28;20033;-69
2023/01/19 04:35:14;;;;;;;23.52;12.98;;;1.50;93.30;;;;;;5033765;28;20065;-69
2023/01/19 04:37:39;;;;;;;20.33;12.73;;;1.50;93.40;;;;;;5029160;28;20543;-69
2023/01/19 04:40:05;;;;;;;19.98;12.25;;;1.50;93.50;;;;;;5050310;28;20239;-68
2023/01/19 04:42:31;;;;;;;19.42;12.45;;;1.50;93.70;;;;;;5026175;28;20140;-69
2023/01/19 04:44:56;;;;;;;19.00;13.50;;;1.50;93.90;;;;;;5030530;28;20798;-70
2023/01/19 04:47:22;;;;;;;21.38;13.57;;;1.40;93.90;;;;;;5027854;28;20037;-69
2023/01/19 04:49:47;;;;;;;22.08;12.35;;;1.40;94.10;;;;;;5031333;28;20112;-69
2023/01/19 04:52:13;;;;;;;21.02;12.98;;;1.40;94.20;;;;;;5021548;28;20414;-69
2023/01/19 04:54:38;;;;;;;20.58;13.40;;;1.40;94.30;;;;;;5019469;28;20030;-69
2023/01/19 04:57:04;;;;;;;18.80;12.57;;;1.40;94.40;;;;;;5026242;28;20037;-69
2023/01/19 04:59:29;;;;;;;22.63;13.32;;;1.40;94.60;;;;;;5029421;28;20430;-68
2023/01/19 05:01:55;;;;;;;22.88;13.45;;;1.40;94.50;;;;;;5025023;28;20068;-69
2023/01/19 05:04:21;;;;;;;20.92;13.77;;;1.40;94.50;;;;;;5029131;28;20038;-69
2023/01/19 05:06:47;;;;;;;22.67;12.93;;;1.40;94.70;;;;;;5024895;28;20026;-70
2023/01/19 05:09:14;;;;;;;19.67;13.23;;;1.40;94.80;;;;;;5017301;28;20029;-71
2023/01/19 05:11:40;;;;;;;25.17;14.55;;;1.40;94.80;;;;;;5012927;28;20076;-69
2023/01/19 05:14:05;;;;;;;22.15;14.13;;;1.40;94.90;;;;;;5017446;28;20038;-68
2023/01/19 05:16:31;;;;;;;21.73;13.50;;;1.40;95.00;;;;;;5025507;28;20034;-68
2023/01/19 05:18:57;;;;;;;18.88;13.32;;;1.40;95.20;;;;;;5021080;28;20040;-70
2023/01/19 05:21:22;;;;;;;21.50;13.73;;;1.40;95.30;;;;;;5022978;28;20060;-68
2023/01/19 05:23:48;;;;;;;26.25;14.50;;;1.40;95.60;;;;;;5023527;28;20064;-69
2023/01/19 05:26:13;;;;;;;21.08;14.27;;;1.30;95.70;;;;;;5017558;28;20084;-68
2023/01/19 05:28:39;;;;;;;23.00;14.80;;;1.30;95.80;;;;;;5022871;28;20033;-69
2023/01/19 05:31:04;;;;;;;24.52;14.88;;;1.30;96.10;;;;;;5029312;28;20104;-69
2023/01/19 05:33:30;;;;;;;22.08;14.30;;;1.30;96.30;;;;;;5020470;28;20490;-69
2023/01/19 05:35:55;;;;;;;21.80;15.10;;;1.20;96.40;;;;;;5023296;28;20030;-68
2023/01/19 05:38:23;;;;;;;22.48;14.52;;;1.20;96.70;;;;;;5018761;28;20033;-69
2023/01/19 05:40:48;;;;;;;24.08;14.30;;;1.20;96.90;;;;;;5029046;28;20029;-69
2023/01/19 05:43:14;;;;;;;24.98;15.43;;;1.20;97.00;;;;;;5021870;28;20033;-69
2023/01/19 05:45:40;;;;;;;22.90;14.85;;;1.10;97.10;;;;;;5026594;28;20480;-69
2023/01/19 05:48:07;;;;;;;23.63;15.13;;;1.20;97.30;;;;;;5026021;28;20043;-69
2023/01/19 05:50:33;;;;;;;24.95;16.90;;;1.10;97.20;;;;;;5026122;28;20474;-69
2023/01/19 05:52:59;;;;;;;28.55;15.88;;;1.10;97.40;;;;;;5019503;28;20509;-69
2023/01/19 05:55:26;;;;;;;24.92;14.57;;;1.10;97.50;;;;;;5024883;28;20041;-69
2023/01/19 05:57:51;;;;;;;26.52;17.38;;;1.10;97.70;;;;;;5019030;28;20561;-69
2023/01/19 06:00:17;;;;;;;26.10;17.17;;;1.10;97.90;;;;;;5025006;28;20125;-69
2023/01/19 06:02:43;;;;;;;26.73;17.20;;;1.10;97.90;;;;;;5019926;28;20030;-69
2023/01/19 06:05:08;;;;;;;27.67;17.13;;;1.00;98.00;;;;;;5023275;28;20045;-69
2023/01/19 06:07:34;;;;;;;29.48;17.25;;;1.00;98.10;;;;;;5028353;28;20030;-69
2023/01/19 06:09:59;;;;;;;28.52;18.05;;;1.00;98.20;;;;;;5021826;28;20464;-69
2023/01/19 06:12:25;;;;;;;30.27;18.00;;;1.00;98.20;;;;;;5019029;28;20034;-69
2023/01/19 06:14:50;;;;;;;27.23;17.83;;;1.00;98.30;;;;;;5027195;28;20094;-69
2023/01/19 06:17:16;;;;;;;28.77;18.50;;;1.00;98.40;;;;;;5022804;28;20045;-69
2023/01/19 06:19:41;;;;;;;32.35;18.48;;;0.90;98.40;;;;;;5026037;28;20060;-69
2023/01/19 06:22:07;;;;;;;34.60;18.63;;;0.90;98.50;;;;;;5022763;28;20105;-69
2023/01/19 06:24:33;;;;;;;28.65;19.25;;;0.90;98.60;;;;;;5026068;28;20091;-69
2023/01/19 06:26:59;;;;;;;31.55;20.10;;;0.80;98.60;;;;;;5021434;28;20026;-69
2023/01/19 06:29:25;;;;;;;33.17;21.63;;;0.90;98.70;;;;;;5017100;28;20079;-69
2023/01/19 06:31:50;;;;;;;34.80;20.17;;;0.80;98.80;;;;;;5016356;28;20104;-69
2023/01/19 06:34:16;;;;;;;35.65;21.90;;;0.80;98.80;;;;;;5023061;28;20033;-69
2023/01/19 06:36:41;;;;;;;36.40;20.52;;;0.80;98.80;;;;;;5020769;28;20037;-69
2023/01/19 06:39:08;;;;;;;31.42;20.50;;;0.90;98.90;;;;;;5023112;28;20389;-69
2023/01/19 06:41:34;;;;;;;35.47;21.00;;;0.90;99.00;;;;;;5018646;28;20044;-69
2023/01/19 06:44:00;;;;;;;37.22;23.25;;;0.80;99.00;;;;;;5022729;28;20554;-69
2023/01/19 06:46:26;;;;;;;34.47;21.20;;;0.90;99.10;;;;;;5028074;28;20024;-69
2023/01/19 06:48:51;;;;;;;34.33;21.13;;;0.90;99.10;;;;;;5025934;28;20378;-70
2023/01/19 06:51:17;;;;;;;37.63;21.65;;;0.90;99.20;;;;;;5024386;28;20035;-70
2023/01/19 06:53:42;;;;;;;35.67;21.80;;;0.90;99.20;;;;;;5027295;28;20041;-70
2023/01/19 06:56:08;;;;;;;41.78;23.15;;;1.00;99.20;;;;;;5025011;28;20097;-69
2023/01/19 06:58:34;;;;;;;36.25;22.33;;;1.00;99.30;;;;;;5023206;28;20145;-69
2023/01/19 07:01:07;;;;;;;34.42;21.70;;;1.10;99.30;;;;;;5018948;28;20077;-69
2023/01/19 07:03:33;;;;;;;37.03;21.08;;;1.00;99.30;;;;;;5023980;28;20049;-70
2023/01/19 07:06:01;;;;;;;40.03;24.00;;;1.00;99.30;;;;;;5022148;28;20044;-69
2023/01/19 07:08:27;;;;;;;40.08;23.83;;;1.10;99.30;;;;;;5016706;28;20030;-69
2023/01/19 07:11:03;;;;;;;37.67;22.92;;;1.10;99.30;;;;;;5018672;28;20038;-70
2023/01/19 07:13:29;;;;;;;39.55;21.27;;;1.10;99.40;;;;;;5018394;28;20022;-70
2023/01/19 07:15:54;;;;;;;37.78;22.58;;;1.10;99.30;;;;;;5029490;28;20039;-69
2023/01/19 07:18:20;;;;;;;40.85;23.83;;;1.10;99.30;;;;;;5029523;28;20036;-69
2023/01/19 07:20:48;;;;;;;34.60;18.48;;;1.10;99.30;;;;;;5028390;28;20133;-70
2023/01/19 07:23:14;;;;;;;44.03;23.08;;;1.20;99.30;;;;;;5031613;28;20041;-69
2023/01/19 07:25:40;;;;;;;38.28;22.75;;;1.10;99.20;;;;;;5028794;28;20046;-70
2023/01/19 07:28:05;;;;;;;36.08;23.23;;;1.20;99.20;;;;;;5030169;28;20037;-70
2023/01/19 07:30:31;;;;;;;40.88;23.15;;;1.20;99.20;;;;;;5036491;28;20030;-69
2023/01/19 07:32:57;;;;;;;39.60;22.88;;;1.20;99.20;;;;;;5037325;28;20017;-70
2023/01/19 07:35:23;;;;;;;43.55;24.48;;;1.20;99.10;;;;;;5025028;28;20108;-70
2023/01/19 07:37:49;;;;;;;37.92;21.88;;;1.20;99.20;;;;;;5034849;28;20484;-70
2023/01/19 07:40:14;;;;;;;39.13;22.83;;;1.20;99.10;;;;;;5042265;28;20040;-69
2023/01/19 07:42:45;;;;;;;35.78;21.65;;;1.20;99.10;;;;;;5031903;28;20025;-70
2023/01/19 07:45:11;;;;;;;34.75;21.55;;;1.30;99.00;;;;;;5030099;28;20029;-70
2023/01/19 07:47:36;;;;;;;36.15;21.05;;;1.30;98.90;;;;;;5032458;28;20048;-69
2023/01/19 07:50:02;;;;;;;38.90;19.33;;;1.30;98.90;;;;;;5029113;28;20033;-70
2023/01/19 07:52:28;;;;;;;36.75;22.60;;;1.30;98.80;;;;;;5027619;28;20037;-70
2023/01/19 07:54:53;;;;;;;36.42;21.45;;;1.40;98.70;;;;;;5027818;28;20356;-70
2023/01/19 07:57:19;;;;;;;32.13;20.35;;;1.30;98.70;;;;;;5033402;28;20083;-70
2023/01/19 07:59:44;;;;;;;38.42;22.17;;;1.40;98.70;;;;;;5030452;28;20033;-70
2023/01/19 08:02:10;;;;;;;38.10;23.05;;;1.30;98.60;;;;;;5027661;28;20034;-70
2023/01/19 08:04:35;;;;;;;36.58;21.95;;;1.40;98.70;;;;;;5030160;28;20099;-70
2023/01/19 08:07:01;;;;;;;39.92;22.63;;;1.40;98.70;;;;;;5032975;28;20026;-70
2023/01/19 08:09:26;;;;;;;37.67;21.83;;;1.40;98.70;;;;;;5034147;28;20029;-69
2023/01/19 08:11:52;;;;;;;35.58;22.02;;;1.30;98.70;;;;;;5031017;28;20385;-69
2023/01/19 08:14:17;;;;;;;35.83;22.70;;;1.40;98.70;;;;;;5028178;28;20454;-70
2023/01/19 08:16:43;;;;;;;36.45;22.55;;;1.30;98.70;;;;;;5026844;28;20038;-70
2023/01/19 08:19:08;;;;;;;38.50;21.88;;;1.30;98.80;;;;;;5027432;28;20053;-70
2023/01/19 08:21:35;;;;;;;36.58;21.40;;;1.30;98.80;;;;;;5029302;28;20450;-70
2023/01/19 08:24:00;;;;;;;36.63;21.88;;;1.30;98.80;;;;;;5032390;28;20136;-69
2023/01/19 08:26:28;;;;;;;36.03;21.13;;;1.30;98.90;;;;;;5031317;28;20444;-70
2023/01/19 08:28:56;;;;;;;36.17;22.05;;;1.30;98.90;;;;;;5032704;28;20097;-70
2023/01/19 08:31:22;;;;;;;35.95;21.85;;;1.30;99.00;;;;;;5021264;28;20034;-69
2023/01/19 08:33:47;;;;;;;39.25;22.58;;;1.30;98.90;;;;;;5029262;28;20044;-69
2023/01/19 08:36:13;;;;;;;32.50;19.75;;;1.30;99.00;;;;;;5021472;28;20080;-70
2023/01/19 08:38:42;;;;;;;33.53;21.75;;;1.30;99.00;;;;;;5031574;28;20029;-69
2023/01/19 08:41:08;;;;;;;34.33;21.50;;;1.30;99.00;;;;;;5032645;28;20075;-70
2023/01/19 08:43:33;;;;;;;36.67;21.15;;;1.30;99.00;;;;;;5028905;28;20073;-70
2023/01/19 08:45:59;;;;;;;36.22;22.00;;;1.30;99.10;;;;;;5037918;28;20039;-69
2023/01/19 08:48:24;;;;;;;32.55;20.08;;;1.30;99.00;;;;;;5029820;28;20021;-69
2023/01/19 08:50:51;;;;;;;39.90;22.38;;;1.30;99.10;;;;;;5025239;28;20036;-70
2023/01/19 08:53:18;;;;;;;36.20;21.85;;;1.30;99.00;;;;;;5027404;28;20133;-69
2023/01/19 08:55:43;;;;;;;35.13;21.27;;;1.30;99.00;;;;;;5024962;28;20397;-70
2023/01/19 08:58:09;;;;;;;40.45;21.55;;;1.30;99.00;;;;;;5022349;28;20029;-70
2023/01/19 09:00:37;;;;;;;35.08;21.52;;;1.40;99.00;;;;;;5023596;28;20109;-70
2023/01/19 09:03:07;;;;;;;35.85;19.50;;;1.40;99.00;;;;;;5021228;28;20060;-70
2023/01/19 09:05:36;;;;;;;41.30;21.90;;;1.40;99.00;;;;;;5026508;28;20033;-70
2023/01/19 09:08:09;;;;;;;37.67;21.20;;;1.40;99.00;;;;;;5023248;28;20030;-70
2023/01/19 09:10:36;;;;;;;35.00;20.40;;;1.30;98.90;;;;;;5027019;28;20029;-70
2023/01/19 09:13:03;;;;;;;38.65;22.08;;;1.40;98.90;;;;;;5031570;28;20029;-70
2023/01/19 09:15:32;;;;;;;34.63;21.02;;;1.40;98.90;;;;;;5031981;28;20458;-70
2023/01/19 09:17:58;;;;;;;32.55;20.25;;;1.40;98.80;;;;;;5023984;28;20025;-70
2023/01/19 09:20:23;;;;;;;36.63;21.67;;;1.40;98.70;;;;;;5032154;28;20520;-70
2023/01/19 09:22:49;;;;;;;32.38;19.17;;;1.40;98.70;;;;;;5026927;28;20544;-70
2023/01/19 09:25:14;;;;;;;34.10;19.35;;;1.50;98.70;;;;;;5015251;28;20053;-71
2023/01/19 09:27:40;;;;;;;32.95;20.70;;;1.50;98.70;;;;;;5027514;28;20049;-70
2023/01/19 09:30:07;;;;;;;32.83;19.98;;;1.60;98.70;;;;;;5031999;28;20104;-70
2023/01/19 09:32:32;;;;;;;37.67;21.33;;;1.60;98.50;;;;;;5036878;28;20033;-70
2023/01/19 09:34:58;;;;;;;34.90;20.00;;;1.70;98.40;;;;;;5020838;28;20516;-70
2023/01/19 09:37:23;;;;;;;33.97;19.95;;;1.70;98.20;;;;;;5020539;28;20522;-70
2023/01/19 09:39:49;;;;;;;36.45;20.85;;;1.70;98.00;;;;;;5030177;28;20076;-70
2023/01/19 09:42:32;;;;;;;30.52;19.55;;;1.80;98.20;;;;;;5021883;28;20044;-70
2023/01/19 09:44:59;;;;;;;29.30;19.45;;;1.80;98.00;;;;;;5030733;28;20120;-70
2023/01/19 09:47:28;;;;;;;30.63;18.65;;;1.80;98.10;;;;;;5031681;28;20033;-70
2023/01/19 09:50:00;;;;;;;30.23;18.98;;;1.80;98.00;;;;;;5023776;28;20084;-69
2023/01/19 09:52:25;;;;;;;34.17;19.80;;;1.80;98.00;;;;;;5025866;28;20467;-70
2023/01/19 09:54:56;;;;;;;34.35;18.92;;;1.80;97.90;;;;;;5022297;28;20036;-70
2023/01/19 09:57:23;;;;;;;27.92;17.75;;;1.80;98.00;;;;;;5026778;28;20376;-70
2023/01/19 09:59:50;;;;;;;30.10;18.15;;;1.80;98.10;;;;;;5017074;28;20034;-70
2023/01/19 10:02:23;;;;;;;30.08;18.83;;;1.90;98.00;;;;;;5031348;28;20022;-70
2023/01/19 10:05:05;;;;;;;28.85;17.40;;;1.80;98.10;;;;;;5034696;28;20041;-70
2023/01/19 10:08:08;;;;;;;29.35;17.98;;;1.80;98.00;;;;;;5023190;28;20030;-70
2023/01/19 10:10:36;;;;;;;31.30;17.25;;;1.90;98.10;;;;;;5028639;28;20381;-70
2023/01/19 10:13:20;;;;;;;31.10;17.88;;;1.90;98.10;;;;;;5027100;28;20030;-70
2023/01/19 10:15:46;;;;;;;29.00;17.30;;;1.90;98.10;;;;;;5023874;28;20622;-70
2023/01/19 10:18:21;;;;;;;33.88;18.35;;;2.10;98.10;;;;;;5026751;28;20112;-70
2023/01/19 10:21:00;;;;;;;30.27;17.00;;;2.10;97.70;;;;;;5018536;28;20429;-70
2023/01/19 10:23:37;;;;;;;28.15;16.15;;;2.10;97.90;;;;;;5025198;28;20041;-70
2023/01/19 10:26:18;;;;;;;26.63;17.50;;;2.10;97.80;;;;;;5027369;28;20056;-70
2023/01/19 10:28:46;;;;;;;25.75;15.10;;;2.00;97.80;;;;;;5036862;28;20029;-70
2023/01/19 10:31:13;;;;;;;26.23;16.60;;;1.90;97.80;;;;;;5034131;28;20034;-70
2023/01/19 10:33:38;;;;;;;31.27;16.75;;;1.90;97.90;;;;;;5022582;28;21854;-70
2023/01/19 10:36:34;;;;;;;24.55;16.25;;;1.80;97.90;;;;;;5026584;28;20052;-70
2023/01/19 10:38:59;;;;;;;25.15;16.30;;;1.80;97.90;;;;;;5033381;28;20041;-70
2023/01/19 10:41:38;;;;;;;27.08;16.83;;;1.90;98.00;;;;;;5035825;28;20087;-70
2023/01/19 10:44:04;;;;;;;26.83;17.42;;;2.00;98.10;;;;;;5029424;28;20041;-70
2023/01/19 10:46:43;;;;;;;23.73;16.52;;;2.00;98.10;;;;;;5033780;28;20473;-70
2023/01/19 10:49:41;;;;;;;24.67;15.98;;;2.00;98.10;;;;;;5028307;28;20515;-70
2023/01/19 10:52:31;;;;;;;25.02;16.48;;;2.00;98.20;;;;;;5031871;28;20123;-70
2023/01/19 10:54:58;;;;;;;25.40;17.33;;;2.00;98.20;;;;;;5020032;28;20033;-70
2023/01/19 10:57:29;;;;;;;28.10;16.48;;;2.10;98.20;;;;;;5026900;28;20260;-70
2023/01/19 10:59:55;;;;;;;26.75;16.55;;;2.10;98.10;;;;;;5026215;28;20034;-70
2023/01/19 11:02:26;;;;;;;22.80;14.63;;;2.00;98.20;;;;;;5035631;28;20048;-72
2023/01/19 11:04:54;;;;;;;25.05;16.65;;;2.00;98.20;;;;;;5032588;28;20037;-71
2023/01/19 11:07:29;;;;;;;27.75;16.92;;;2.00;98.20;;;;;;5024389;28;20037;-71
2023/01/19 11:10:20;;;;;;;29.75;16.95;;;2.00;98.20;;;;;;5017960;28;20036;-71
2023/01/19 11:13:00;;;;;;;24.52;15.20;;;2.00;98.30;;;;;;5024001;28;20107;-71
2023/01/19 11:15:39;;;;;;;26.75;16.30;;;2.00;98.30;;;;;;5025177;28;20129;-71
2023/01/19 11:18:06;;;;;;;27.75;17.55;;;2.00;98.20;;;;;;5023225;28;20021;-71
2023/01/19 11:20:49;;;;;;;23.80;16.13;;;2.10;98.40;;;;;;5018423;28;20072;-71
2023/01/19 11:23:28;;;;;;;24.80;16.23;;;2.10;98.40;;;;;;5017709;28;20462;-71
2023/01/19 11:26:00;;;;;;;27.52;17.42;;;2.00;98.20;;;;;;5014246;28;20060;-71
2023/01/19 11:28:31;;;;;;;24.52;15.70;;;2.10;98.30;;;;;;5022230;28;20029;-71
2023/01/19 11:31:18;;;;;;;24.90;15.73;;;2.10;98.10;;;;;;5028173;28;20034;-71
2023/01/19 11:33:48;;;;;;;27.08;16.75;;;2.10;98.30;;;;;;5022788;28;20034;-71
2023/01/19 11:36:22;;;;;;;25.70;16.23;;;2.10;98.20;;;;;;5014855;28;20033;-70
2023/01/19 11:38:50;;;;;;;24.73;16.48;;;2.10;98.20;;;;;;5026416;28;20439;-71
2023/01/19 11:41:19;;;;;;;25.80;15.75;;;2.10;97.90;;;;;;5026168;28;20382;-71
2023/01/19 11:43:49;;;;;;;28.00;16.50;;;2.10;97.90;;;;;;5027100;28;20037;-71
2023/01/19 11:46:16;;;;;;;23.90;15.32;;;2.10;97.90;;;;;;5030434;28;20048;-71
2023/01/19 11:48:45;;;;;;;25.33;16.10;;;2.10;97.70;;;;;;5016303;28;20042;-71
2023/01/19 11:51:17;;;;;;;24.30;15.70;;;2.10;97.80;;;;;;5018872;28;20527;-71
2023/01/19 11:53:47;;;;;;;27.23;15.32;;;2.20;97.90;;;;;;5023402;28;20042;-71
2023/01/19 11:56:14;;;;;;;25.98;15.07;;;2.20;97.90;;;;;;5027433;28;20048;-71
2023/01/19 11:58:45;;;;;;;23.40;14.35;;;2.10;97.80;;;;;;5027307;28;20171;-71
2023/01/19 12:01:27;;;;;;;;;;;2.00;97.70;;;;;;5013194;28;20042;-71
2023/01/19 12:04:31;;;;;;;22.63;13.45;;;1.90;97.80;;;;;;5016532;28;19924;-72
2023/01/19 12:07:01;;;;;;;25.33;14.43;;;1.90;98.10;;;;;;5005815;28;20077;-72
2023/01/19 12:09:33;;;;;;;22.30;14.50;;;1.90;98.20;;;;;;5023536;28;20358;-72
2023/01/19 12:12:10;;;;;;;;;;;1.90;98.30;;;;;;5027061;28;20466;-71
2023/01/19 12:14:42;;;;;;;20.80;12.88;;;2.00;98.40;;;;;;5021651;28;19908;-71
2023/01/19 12:17:23;;;;;;;26.33;14.43;;;2.00;98.40;;;;;;5015176;28;20034;-72
2023/01/19 12:19:55;;;;;;;28.23;15.55;;;2.10;98.50;;;;;;5022667;28;20091;-72
2023/01/19 12:22:22;;;;;;;24.33;14.70;;;2.10;98.60;;;;;;5026738;28;20042;-72
2023/01/19 12:25:01;;;;;;;25.02;14.80;;;2.10;98.60;;;;;;5029004;28;20052;-71
2023/01/19 12:27:41;;;;;;;24.50;15.57;;;2.10;98.60;;;;;;5024116;28;20036;-71
2023/01/19 12:30:18;;;;;;;29.92;16.50;;;2.20;98.70;;;;;;5023619;28;20029;-71
2023/01/19 12:32:44;;;;;;;23.33;14.98;;;2.20;98.70;;;;;;5023981;28;20492;-71
2023/01/19 12:35:51;;;;;;;26.67;14.40;;;2.20;98.60;;;;;;5015064;28;20025;-71
2023/01/19 12:38:39;;;;;;;26.02;14.65;;;2.20;98.70;;;;;;5020427;28;20132;-71
2023/01/19 12:41:32;;;;;;;24.95;13.55;;;2.20;98.70;;;;;;5026610;28;20585;-71
2023/01/19 12:44:10;;;;;;;25.00;14.13;;;2.20;98.70;;;;;;5022839;28;20477;-71
2023/01/19 12:46:37;;;;;;;25.65;14.20;;;2.20;98.70;;;;;;5017910;28;20025;-72
2023/01/19 12:49:24;;;;;;;25.27;14.25;;;2.20;98.70;;;;;;5019156;28;20058;-71
2023/01/19 12:51:53;;;;;;;24.48;14.20;;;2.20;98.70;;;;;;5021406;28;20026;-71
2023/01/19 12:54:27;;;;;;;25.35;13.32;;;2.20;98.80;;;;;;5023716;28;20461;-72
2023/01/19 12:56:58;;;;;;;22.55;14.30;;;2.30;98.80;;;;;;5021062;28;20037;-72
2023/01/19 12:59:25;;;;;;;23.27;14.45;;;2.30;98.80;;;;;;5021323;28;20033;-72
2023/01/19 13:02:18;;;;;;;24.67;13.95;;;2.30;98.80;;;;;;5025316;28;20087;-72